Shirahamamaru — JG4872 — position and weather

sailwx.info

Track history (hours):
 
Tides and Currents Weather Stations Pressure Air Temp Water Temp Dewpoint Dewpoint Depression Visibility Wind Speed Wind Dir Waves Ship Positions

Shirahamamaru

Last reported at 2015-Jun-30 09:33 UTC. Time now 2015-Jun-30 09:58 UTC.
Position N 35°11' E 139°48'.

Length 79 m; draft 3.2 m.

Type: Passenger vessel. MMSI: 431000239.

Date/timePositionNaut miles runAvg speedWind from/ knotsBaromVisibWave heightAir tempDewpointWater temp
2015-Jun-30 09:33N 35°11' E 139°48'4 3.8
2015-Jun-30 08:33N 35°13' E 139°44'5 4.8
2015-Jun-30 07:33N 35°10' E 139°49'5 4.8
2015-Jun-30 06:33N 35°13' E 139°44'1 0.8
2015-Jun-30 05:33N 35°13' E 139°43'6 5.9
2015-Jun-30 04:33N 35°10' E 139°49'3 2.6
2015-Jun-30 03:33N 35°12' E 139°46'3 3.2
2015-Jun-30 02:33N 35°13' E 139°43'5 4.8
2015-Jun-30 01:33N 35°11' E 139°48'4 4.3
2015-Jun-30 00:32N 35°13' E 139°43'2 2.4
2015-Jun-29 23:33N 35°12' E 139°46'2 1.7
2015-Jun-29 22:33N 35°13' E 139°44'3 2.7
2015-Jun-29 21:33N 35°12' E 139°47'1 0.1
2015-Jun-29 10:33N 35°12' E 139°46'2 2.1
2015-Jun-29 09:33N 35°11' E 139°48'4 4.1
2015-Jun-29 08:33N 35°13' E 139°44'5 5.2
2015-Jun-29 07:33N 35°10' E 139°49'5 5.1
2015-Jun-29 06:33N 35°13' E 139°44'1 0.6
2015-Jun-29 05:33N 35°13' E 139°43'6 5.9
2015-Jun-29 04:33N 35°10' E 139°49'2 2.3
2015-Jun-29 03:33N 35°12' E 139°47'4 3.6
2015-Jun-29 02:33N 35°13' E 139°43'5 5.0
2015-Jun-29 01:33N 35°11' E 139°48'5 4.6
2015-Jun-29 00:33N 35°13' E 139°43'2 2.5
2015-Jun-28 23:33N 35°12' E 139°46'1 1.4
2015-Jun-28 22:33N 35°13' E 139°45'2 2.4
2015-Jun-28 21:33N 35°11' E 139°47'2 2.1
2015-Jun-28 20:33N 35°10' E 139°49'3 0.3
2015-Jun-28 10:34N 35°12' E 139°46'2 2.1
2015-Jun-28 09:33N 35°11' E 139°48'4 4.4
2015-Jun-28 08:33N 35°13' E 139°43'5 5.4
2015-Jun-28 07:33N 35°10' E 139°49'5 5.1
2015-Jun-28 06:34N 35°13' E 139°44'3 3.2
2015-Jun-28 05:34N 35°11' E 139°47'2 2.4
2015-Jun-28 04:33N 35°13' E 139°45'4 3.8
2015-Jun-28 03:33N 35°11' E 139°48'5 4.9
2015-Jun-28 02:33N 35°13' E 139°43'4 4.5
2015-Jun-28 01:33N 35°11' E 139°48'4 4.5
2015-Jun-28 00:33N 35°13' E 139°43'3 2.6
2015-Jun-27 23:33N 35°12' E 139°46'1 1.5
2015-Jun-27 22:33N 35°13' E 139°45'2 2.2
2015-Jun-27 21:33N 35°12' E 139°47'2 2.3
2015-Jun-27 20:34N 35°10' E 139°49'3 0.3
2015-Jun-27 10:33N 35°12' E 139°46'2 2.2
2015-Jun-27 09:33N 35°11' E 139°48'4 4.1
2015-Jun-27 08:33N 35°13' E 139°44'5 5.1
2015-Jun-27 07:33N 35°10' E 139°49'5 5.1
2015-Jun-27 06:33N 35°13' E 139°44'3 3.3
2015-Jun-27 05:33N 35°11' E 139°47'2 2.4
2015-Jun-27 04:33N 35°13' E 139°45'3 3.2
2015-Jun-27 03:33N 35°11' E 139°48'4 4.1
2015-Jun-27 02:33N 35°13' E 139°44'4 4.2
2015-Jun-27 01:33N 35°11' E 139°48'4 4.2
2015-Jun-27 00:33N 35°13' E 139°44'3 2.6
2015-Jun-26 23:33N 35°12' E 139°46'1 1.3
2015-Jun-26 22:33N 35°13' E 139°45'2 2.3
2015-Jun-26 21:33N 35°11' E 139°47'2 0.2
2015-Jun-26 10:34N 35°12' E 139°46'2 2.1
2015-Jun-26 09:33N 35°11' E 139°48'4 3.7
2015-Jun-26 08:34N 35°13' E 139°44'5 4.7
2015-Jun-26 07:33N 35°10' E 139°49'5 5.1
2015-Jun-26 06:33N 35°13' E 139°44'1 0.6
2015-Jun-26 05:33N 35°13' E 139°43'6 5.9
2015-Jun-26 04:34N 35°10' E 139°49'2 2.2
2015-Jun-26 03:33N 35°12' E 139°47'4 3.7
2015-Jun-26 02:33N 35°13' E 139°43'5 4.8
2015-Jun-26 01:34N 35°11' E 139°48'4 4.4
2015-Jun-26 00:33N 35°13' E 139°43'2 2.5
2015-Jun-25 23:34N 35°12' E 139°46'1 1.3
2015-Jun-25 22:33N 35°13' E 139°45'2 2.2
2015-Jun-25 21:33N 35°11' E 139°47'1 0.1
2015-Jun-25 10:33N 35°12' E 139°46'2 2.1
2015-Jun-25 09:33N 35°11' E 139°48'4 4.2
2015-Jun-25 08:33N 35°13' E 139°43'5 5.3
2015-Jun-25 07:33N 35°10' E 139°49'5 5.1
2015-Jun-25 06:33N 35°13' E 139°44'1 0.7
2015-Jun-25 05:33N 35°13' E 139°43'6 5.4
2015-Jun-25 04:28N 35°10' E 139°49'2 2.2
2015-Jun-25 03:33N 35°11' E 139°47'4 3.8
2015-Jun-25 02:33N 35°13' E 139°43'5 4.9
2015-Jun-25 01:33N 35°11' E 139°48'4 4.3
2015-Jun-25 00:33N 35°13' E 139°44'2 2.3
2015-Jun-24 23:33N 35°12' E 139°46'1 1.3
2015-Jun-24 22:33N 35°13' E 139°45'2 2.2
2015-Jun-24 21:33N 35°12' E 139°47'2 2.1
2015-Jun-24 20:33N 35°10' E 139°49'3 0.3
2015-Jun-24 10:34N 35°12' E 139°46'2 1.8
2015-Jun-24 09:34N 35°11' E 139°48'4 4.2
2015-Jun-24 08:34N 35°13' E 139°44'5 5.3
2015-Jun-24 07:33N 35°10' E 139°49'5 5.2
2015-Jun-24 06:33N 35°13' E 139°44'1 0.6
2015-Jun-24 05:33N 35°13' E 139°43'6 5.8
2015-Jun-24 04:33N 35°10' E 139°49'2 2.3
2015-Jun-24 03:34N 35°11' E 139°47'4 3.6
2015-Jun-24 02:33N 35°13' E 139°43'5 4.7
2015-Jun-24 01:33N 35°11' E 139°48'4 4.3
2015-Jun-24 00:33N 35°13' E 139°43'2 2.5
2015-Jun-23 23:34N 35°12' E 139°46'2 1.5
2015-Jun-23 22:32N 35°13' E 139°44'2 2.6
2015-Jun-23 21:34N 35°12' E 139°47'2 2.2
2015-Jun-23 20:34N 35°10' E 139°49'3 0.1
2015-Jun-22 10:33N 35°12' E 139°46'2 2.1
2015-Jun-22 09:33N 35°11' E 139°48'4 4.1
2015-Jun-22 08:33N 35°13' E 139°44'5 5.1
2015-Jun-22 07:33N 35°10' E 139°49'5 5.3
2015-Jun-22 06:33N 35°13' E 139°44'1 0.7
2015-Jun-22 05:33N 35°13' E 139°43'6 5.9
2015-Jun-22 04:33N 35°10' E 139°49'2 2.3
2015-Jun-22 03:33N 35°11' E 139°47'4 3.6
2015-Jun-22 02:33N 35°13' E 139°43'5 4.7
2015-Jun-22 01:33N 35°11' E 139°48'4 4.0
2015-Jun-22 00:33N 35°13' E 139°44'2 2.3
2015-Jun-21 23:33N 35°12' E 139°46'1 1.2
2015-Jun-21 22:33N 35°13' E 139°45'2 2.1
2015-Jun-21 21:33N 35°12' E 139°47'1 0.1
2015-Jun-21 10:33N 35°12' E 139°46'2 2.0
2015-Jun-21 09:34N 35°11' E 139°48'4 4.2
2015-Jun-21 08:33N 35°13' E 139°44'5 5.1
2015-Jun-21 07:34N 35°10' E 139°49'5 5.0
2015-Jun-21 06:33N 35°13' E 139°44'3 3.2
2015-Jun-21 05:33N 35°11' E 139°47'2 2.1
2015-Jun-21 04:33N 35°13' E 139°45'3 3.0
2015-Jun-21 03:34N 35°11' E 139°48'4 4.0
2015-Jun-21 02:34N 35°13' E 139°44'4 4.1
2015-Jun-21 01:33N 35°11' E 139°48'4 4.2
2015-Jun-21 00:33N 35°13' E 139°44'2 2.4
2015-Jun-20 23:33N 35°12' E 139°46'1 1.4
2015-Jun-20 22:33N 35°13' E 139°45'2 2.2
2015-Jun-20 21:33N 35°11' E 139°47'2 2.1
2015-Jun-20 20:33N 35°10' E 139°49'3 0.3
2015-Jun-20 10:34N 35°12' E 139°46'2 1.9
2015-Jun-20 09:33N 35°11' E 139°48'  
Track history (hours):
 
Tides and Currents Weather Stations Pressure Air Temp Water Temp Dewpoint Dewpoint Depression Visibility Wind Speed Wind Dir Waves Ship Positions

Shirahamamaru

Last reported at 2015-Jun-30 09:33 UTC. Time now 2015-Jun-30 09:58 UTC.
Position N 35°11' E 139°48'.

Length 79 m; draft 3.2 m.

Type: Passenger vessel. MMSI: 431000239.

Date/timePositionNaut miles runAvg speedWind from/ knotsBaromVisibWave heightAir tempDewpointWater temp
2015-Jun-30 09:33N 35°11' E 139°48'4 3.8
2015-Jun-30 08:33N 35°13' E 139°44'5 4.8
2015-Jun-30 07:33N 35°10' E 139°49'5 4.8
2015-Jun-30 06:33N 35°13' E 139°44'1 0.8
2015-Jun-30 05:33N 35°13' E 139°43'6 5.9
2015-Jun-30 04:33N 35°10' E 139°49'3 2.6
2015-Jun-30 03:33N 35°12' E 139°46'3 3.2
2015-Jun-30 02:33N 35°13' E 139°43'5 4.8
2015-Jun-30 01:33N 35°11' E 139°48'4 4.3
2015-Jun-30 00:32N 35°13' E 139°43'2 2.4
2015-Jun-29 23:33N 35°12' E 139°46'2 1.7
2015-Jun-29 22:33N 35°13' E 139°44'3 2.7
2015-Jun-29 21:33N 35°12' E 139°47'1 0.1
2015-Jun-29 10:33N 35°12' E 139°46'2 2.1
2015-Jun-29 09:33N 35°11' E 139°48'4 4.1
2015-Jun-29 08:33N 35°13' E 139°44'5 5.2
2015-Jun-29 07:33N 35°10' E 139°49'5 5.1
2015-Jun-29 06:33N 35°13' E 139°44'1 0.6
2015-Jun-29 05:33N 35°13' E 139°43'6 5.9
2015-Jun-29 04:33N 35°10' E 139°49'2 2.3
2015-Jun-29 03:33N 35°12' E 139°47'4 3.6
2015-Jun-29 02:33N 35°13' E 139°43'5 5.0
2015-Jun-29 01:33N 35°11' E 139°48'5 4.6
2015-Jun-29 00:33N 35°13' E 139°43'2 2.5
2015-Jun-28 23:33N 35°12' E 139°46'1 1.4
2015-Jun-28 22:33N 35°13' E 139°45'2 2.4
2015-Jun-28 21:33N 35°11' E 139°47'2 2.1
2015-Jun-28 20:33N 35°10' E 139°49'3 0.3
2015-Jun-28 10:34N 35°12' E 139°46'2 2.1
2015-Jun-28 09:33N 35°11' E 139°48'4 4.4
2015-Jun-28 08:33N 35°13' E 139°43'5 5.4
2015-Jun-28 07:33N 35°10' E 139°49'5 5.1
2015-Jun-28 06:34N 35°13' E 139°44'3 3.2
2015-Jun-28 05:34N 35°11' E 139°47'2 2.4
2015-Jun-28 04:33N 35°13' E 139°45'4 3.8
2015-Jun-28 03:33N 35°11' E 139°48'5 4.9
2015-Jun-28 02:33N 35°13' E 139°43'4 4.5
2015-Jun-28 01:33N 35°11' E 139°48'4 4.5
2015-Jun-28 00:33N 35°13' E 139°43'3 2.6
2015-Jun-27 23:33N 35°12' E 139°46'1 1.5
2015-Jun-27 22:33N 35°13' E 139°45'2 2.2
2015-Jun-27 21:33N 35°12' E 139°47'2 2.3
2015-Jun-27 20:34N 35°10' E 139°49'3 0.3
2015-Jun-27 10:33N 35°12' E 139°46'2 2.2
2015-Jun-27 09:33N 35°11' E 139°48'4 4.1
2015-Jun-27 08:33N 35°13' E 139°44'5 5.1
2015-Jun-27 07:33N 35°10' E 139°49'5 5.1
2015-Jun-27 06:33N 35°13' E 139°44'3 3.3
2015-Jun-27 05:33N 35°11' E 139°47'2 2.4
2015-Jun-27 04:33N 35°13' E 139°45'3 3.2
2015-Jun-27 03:33N 35°11' E 139°48'4 4.1
2015-Jun-27 02:33N 35°13' E 139°44'4 4.2
2015-Jun-27 01:33N 35°11' E 139°48'4 4.2
2015-Jun-27 00:33N 35°13' E 139°44'3 2.6
2015-Jun-26 23:33N 35°12' E 139°46'1 1.3
2015-Jun-26 22:33N 35°13' E 139°45'2 2.3
2015-Jun-26 21:33N 35°11' E 139°47'2 0.2
2015-Jun-26 10:34N 35°12' E 139°46'2 2.1
2015-Jun-26 09:33N 35°11' E 139°48'4 3.7
2015-Jun-26 08:34N 35°13' E 139°44'5 4.7
2015-Jun-26 07:33N 35°10' E 139°49'5 5.1
2015-Jun-26 06:33N 35°13' E 139°44'1 0.6
2015-Jun-26 05:33N 35°13' E 139°43'6 5.9
2015-Jun-26 04:34N 35°10' E 139°49'2 2.2
2015-Jun-26 03:33N 35°12' E 139°47'4 3.7
2015-Jun-26 02:33N 35°13' E 139°43'5 4.8
2015-Jun-26 01:34N 35°11' E 139°48'4 4.4
2015-Jun-26 00:33N 35°13' E 139°43'2 2.5
2015-Jun-25 23:34N 35°12' E 139°46'1 1.3
2015-Jun-25 22:33N 35°13' E 139°45'2 2.2
2015-Jun-25 21:33N 35°11' E 139°47'1 0.1
2015-Jun-25 10:33N 35°12' E 139°46'2 2.1
2015-Jun-25 09:33N 35°11' E 139°48'4 4.2
2015-Jun-25 08:33N 35°13' E 139°43'5 5.3
2015-Jun-25 07:33N 35°10' E 139°49'5 5.1
2015-Jun-25 06:33N 35°13' E 139°44'1 0.7
2015-Jun-25 05:33N 35°13' E 139°43'6 5.4
2015-Jun-25 04:28N 35°10' E 139°49'2 2.2
2015-Jun-25 03:33N 35°11' E 139°47'4 3.8
2015-Jun-25 02:33N 35°13' E 139°43'5 4.9
2015-Jun-25 01:33N 35°11' E 139°48'4 4.3
2015-Jun-25 00:33N 35°13' E 139°44'2 2.3
2015-Jun-24 23:33N 35°12' E 139°46'1 1.3
2015-Jun-24 22:33N 35°13' E 139°45'2 2.2
2015-Jun-24 21:33N 35°12' E 139°47'2 2.1
2015-Jun-24 20:33N 35°10' E 139°49'3 0.3
2015-Jun-24 10:34N 35°12' E 139°46'2 1.8
2015-Jun-24 09:34N 35°11' E 139°48'4 4.2
2015-Jun-24 08:34N 35°13' E 139°44'5 5.3
2015-Jun-24 07:33N 35°10' E 139°49'5 5.2
2015-Jun-24 06:33N 35°13' E 139°44'1 0.6
2015-Jun-24 05:33N 35°13' E 139°43'6 5.8
2015-Jun-24 04:33N 35°10' E 139°49'2 2.3
2015-Jun-24 03:34N 35°11' E 139°47'4 3.6
2015-Jun-24 02:33N 35°13' E 139°43'5 4.7
2015-Jun-24 01:33N 35°11' E 139°48'4 4.3
2015-Jun-24 00:33N 35°13' E 139°43'2 2.5
2015-Jun-23 23:34N 35°12' E 139°46'2 1.5
2015-Jun-23 22:32N 35°13' E 139°44'2 2.6
2015-Jun-23 21:34N 35°12' E 139°47'2 2.2
2015-Jun-23 20:34N 35°10' E 139°49'3 0.1
2015-Jun-22 10:33N 35°12' E 139°46'2 2.1
2015-Jun-22 09:33N 35°11' E 139°48'4 4.1
2015-Jun-22 08:33N 35°13' E 139°44'5 5.1
2015-Jun-22 07:33N 35°10' E 139°49'5 5.3
2015-Jun-22 06:33N 35°13' E 139°44'1 0.7
2015-Jun-22 05:33N 35°13' E 139°43'6 5.9
2015-Jun-22 04:33N 35°10' E 139°49'2 2.3
2015-Jun-22 03:33N 35°11' E 139°47'4 3.6
2015-Jun-22 02:33N 35°13' E 139°43'5 4.7
2015-Jun-22 01:33N 35°11' E 139°48'4 4.0
2015-Jun-22 00:33N 35°13' E 139°44'2 2.3
2015-Jun-21 23:33N 35°12' E 139°46'1 1.2
2015-Jun-21 22:33N 35°13' E 139°45'2 2.1
2015-Jun-21 21:33N 35°12' E 139°47'1 0.1
2015-Jun-21 10:33N 35°12' E 139°46'2 2.0
2015-Jun-21 09:34N 35°11' E 139°48'4 4.2
2015-Jun-21 08:33N 35°13' E 139°44'5 5.1
2015-Jun-21 07:34N 35°10' E 139°49'5 5.0
2015-Jun-21 06:33N 35°13' E 139°44'3 3.2
2015-Jun-21 05:33N 35°11' E 139°47'2 2.1
2015-Jun-21 04:33N 35°13' E 139°45'3 3.0
2015-Jun-21 03:34N 35°11' E 139°48'4 4.0
2015-Jun-21 02:34N 35°13' E 139°44'4 4.1
2015-Jun-21 01:33N 35°11' E 139°48'4 4.2
2015-Jun-21 00:33N 35°13' E 139°44'2 2.4
2015-Jun-20 23:33N 35°12' E 139°46'1 1.4
2015-Jun-20 22:33N 35°13' E 139°45'2 2.2
2015-Jun-20 21:33N 35°11' E 139°47'2 2.1
2015-Jun-20 20:33N 35°10' E 139°49'3 0.3
2015-Jun-20 10:34N 35°12' E 139°46'2 1.9
2015-Jun-20 09:33N 35°11' E 139°48'  

Dump ship's entire track history